Bookmark and Share
Track history (hours):
 

Cacilhas B[

Last reported at 2014-Apr-17 06:33 UTC. Time now 2014-Apr-17 06:44 UTC.
Position N 22°12' E 113°34'.

Length 29 m.

Type: Ship. MMSI: 477092000.

NotesDate/timePositionNaut miles runAvg speedWind from/ knotsBaromVisibWave heightAir tempDewpointWater temp
2014-Apr-17 06:33N 22°12' E 113°34'0 0.0
2014-Apr-17 05:33N 22°12' E 113°34'0 0.0
2014-Apr-17 04:33N 22°12' E 113°34'6 5.5
2014-Apr-17 03:33N 22°11' E 113°40'2113.9
2014-Apr-17 02:03N 22°14' E 114°02'2041.2
2014-Apr-17 01:33N 22°11' E 113°41'1 1.4
2014-Apr-17 00:34N 22°11' E 113°39'13 2.6
2014-Apr-16 19:33N 22°12' E 113°54'1918.2
2014-Apr-16 18:32N 22°12' E 113°34'1515.1
2014-Apr-16 17:33N 22°12' E 113°50'12 6.0
2014-Apr-16 15:31N 22°14' E 114°03'2727.2
2014-Apr-16 14:32N 22°12' E 113°34'2210.6
2014-Apr-16 12:25N 22°12' E 113°58'2225.7
2014-Apr-16 11:33N 22°12' E 113°34'0 0.0
2014-Apr-16 10:33N 22°12' E 113°34'4 3.6
2014-Apr-16 09:33N 22°11' E 113°37'9 4.7
2014-Apr-16 07:34N 22°11' E 113°47'1312.7
2014-Apr-16 06:33N 22°12' E 113°34'2121.2
2014-Apr-16 05:34N 22°12' E 113°56'1312.8
2014-Apr-16 04:33N 22°17' E 114°09'2020.3
2014-Apr-16 03:34N 22°11' E 113°49'1313.4
2014-Apr-16 02:33N 22°11' E 113°34'3332.8
2014-Apr-16 01:33N 22°17' E 114°09'1717.2
2014-Apr-16 00:33N 22°11' E 113°52'1716.9
2014-Apr-15 23:33N 22°12' E 113°34'1212.1
2014-Apr-15 22:33N 22°12' E 113°47'2119.1
2014-Apr-15 21:26N 22°17' E 114°09'1618.6
2014-Apr-15 20:33N 22°11' E 113°53'1817.8
2014-Apr-15 19:33N 22°12' E 113°34'3316.1
2014-Apr-15 17:29N 22°17' E 114°09'3335.8
2014-Apr-15 16:33N 22°12' E 113°34'1717.0
2014-Apr-15 15:33N 22°12' E 113°52'1716.9
2014-Apr-15 14:33N 22°17' E 114°09'0 0.0
2014-Apr-15 12:34N 22°17' E 114°09'3333.3
2014-Apr-15 11:34N 22°12' E 113°34'1615.8
2014-Apr-15 10:34N 22°11' E 113°51'18 8.9
2014-Apr-15 08:32N 22°17' E 114°09'1919.5
2014-Apr-15 07:34N 22°11' E 113°50'1515.0
2014-Apr-15 06:34N 22°12' E 113°34'0 0.0
2014-Apr-15 05:34N 22°12' E 113°34'3316.6
2014-Apr-15 03:34N 22°17' E 114°09'0 0.2
2014-Apr-15 02:34N 22°17' E 114°09'0 0.1
2014-Apr-15 01:34N 22°17' E 114°09'0 0.4
2014-Apr-15 00:34N 22°17' E 114°09'3331.8
2014-Apr-14 23:31N 22°12' E 113°34'1616.8
2014-Apr-14 22:34N 22°11' E 113°51'1817.8
2014-Apr-14 21:34N 22°17' E 114°09'0 0.0
2014-Apr-14 20:34N 22°17' E 114°09'0 0.0
2014-Apr-14 19:33N 22°17' E 114°09'1817.9
2014-Apr-14 18:34N 22°11' E 113°51'1616.2
2014-Apr-14 17:33N 22°12' E 113°34'1313.5
2014-Apr-14 16:34N 22°12' E 113°48'2020.2
2014-Apr-14 15:34N 22°17' E 114°09'3333.2
2014-Apr-14 14:33N 22°12' E 113°34'1818.2
2014-Apr-14 13:34N 22°12' E 113°53'1 0.3
2014-Apr-14 10:34N 22°12' E 113°52'17 8.6
2014-Apr-14 08:33N 22°12' E 113°34'1515.6
2014-Apr-14 07:34N 22°12' E 113°50'1818.4
2014-Apr-14 06:34N 22°17' E 114°09'3333.3
2014-Apr-14 05:33N 22°12' E 113°34'0 0.0
2014-Apr-13 22:33N 22°12' E 113°34'5 4.9
2014-Apr-13 21:33N 22°11' E 113°39'2927.4
2014-Apr-13 20:31N 22°17' E 114°09'0 0.0
2014-Apr-13 19:33N 22°17' E 114°09'0 0.0
2014-Apr-13 18:33N 22°17' E 114°09'0 0.0
2014-Apr-13 17:31N 22°17' E 114°09'3335.0
2014-Apr-13 16:34N 22°12' E 113°34'2020.0
2014-Apr-13 15:33N 22°12' E 113°55'1413.8
2014-Apr-13 14:33N 22°17' E 114°09'1818.3
2014-Apr-13 13:33N 22°11' E 113°51'1515.4
2014-Apr-13 12:34N 22°11' E 113°34'3332.8
2014-Apr-13 11:33N 22°17' E 114°09'1818.6
2014-Apr-13 10:33N 22°11' E 113°50'1615.6
2014-Apr-13 09:33N 22°12' E 113°34'0 0.0
2014-Apr-13 08:33N 22°12' E 113°34'0 0.0
2014-Apr-13 07:33N 22°12' E 113°34'0 0.0
2014-Apr-13 06:33N 22°12' E 113°34'0 0.0
2014-Apr-13 05:32N 22°12' E 113°34'0 0.0
2014-Apr-13 04:34N 22°12' E 113°34'0 0.0
2014-Apr-13 03:33N 22°12' E 113°34'0 0.0
2014-Apr-13 02:33N 22°12' E 113°34'0 0.0
2014-Apr-13 01:33N 22°12' E 113°34'0 0.0
2014-Apr-13 00:33N 22°12' E 113°34'0 0.0
2014-Apr-12 22:33N 22°12' E 113°34'0 0.0
2014-Apr-12 21:33N 22°12' E 113°34'0 0.0
2014-Apr-12 20:34N 22°12' E 113°34'0 0.0
2014-Apr-12 19:33N 22°12' E 113°34'0 0.0
2014-Apr-12 18:34N 22°12' E 113°34'1717.2
2014-Apr-12 17:33N 22°12' E 113°52'1714.9
2014-Apr-12 16:26N 22°17' E 114°09'2629.6
2014-Apr-12 15:33N 22°11' E 113°42'1 0.8
2014-Apr-12 14:33N 22°12' E 113°42'2624.9
2014-Apr-12 13:32N 22°17' E 114°09'2727.5
2014-Apr-12 12:33N 22°11' E 113°41'7 6.9
2014-Apr-12 11:34N 22°12' E 113°34'1 0.8
2014-Apr-12 10:34N 22°11' E 113°34'3332.1
2014-Apr-12 09:32N 22°17' E 114°09'1919.9
2014-Apr-12 08:33N 22°11' E 113°49'1414.0
2014-Apr-12 07:32N 22°12' E 113°34'3229.5
2014-Apr-12 06:26N 22°18' E 114°08'0 0.5
2014-Apr-12 05:34N 22°18' E 114°09'3331.8
2014-Apr-12 04:31N 22°12' E 113°34'1212.1
2014-Apr-12 03:33N 22°12' E 113°46'2221.9
2014-Apr-12 02:33N 22°17' E 114°09'3333.3
2014-Apr-12 01:33N 22°12' E 113°34'1717.3
2014-Apr-12 00:33N 22°12' E 113°52'1716.6
2014-Apr-11 23:33N 22°17' E 114°09'3333.3
2014-Apr-11 22:33N 22°12' E 113°34'5 5.2
2014-Apr-11 21:33N 22°11' E 113°39'2828.3
2014-Apr-11 20:33N 22°17' E 114°09'0 0.0
2014-Apr-11 19:33N 22°17' E 114°09'0 0.0
2014-Apr-11 18:33N 22°17' E 114°09'0 0.0
2014-Apr-11 17:33N 22°17' E 114°09'1818.3
2014-Apr-11 16:34N 22°11' E 113°51'1615.7
2014-Apr-11 15:33N 22°12' E 113°34'0 0.0
2014-Apr-11 14:33N 22°12' E 113°34'0 0.0
2014-Apr-11 13:33N 22°12' E 113°34'0 0.0
2014-Apr-11 12:33N 22°12' E 113°34'0 0.0
2014-Apr-11 11:33N 22°12' E 113°34'0 0.0
2014-Apr-11 10:33N 22°12' E 113°34'0 0.5
2014-Apr-11 09:33N 22°11' E 113°34'3328.2
2014-Apr-11 08:23N 22°17' E 114°09'2125.5
2014-Apr-11 07:33N 22°11' E 113°47'1312.8
2014-Apr-11 06:33N 22°12' E 113°34'3333.2
2014-Apr-11 05:33N 22°17' E 114°09'8 6.7
2014-Apr-11 04:25N 22°14' E 114°02'2630.4
2014-Apr-11 03:33N 22°12' E 113°34'2121.4
2014-Apr-11 02:33N 22°12' E 113°57'1312.6
2014-Apr-11 01:33N 22°17' E 114°09'3333.4
2014-Apr-11 00:33N 22°12' E 113°34'1817.8
2014-Apr-10 23:33N 22°12' E 113°53'1615.9
2014-Apr-10 22:33N 22°17' E 114°09'0 0.1
2014-Apr-10 21:33N 22°17' E 114°09'0 0.0
2014-Apr-10 20:33N 22°17' E 114°09'0 0.0
2014-Apr-10 19:33N 22°17' E 114°09'0 0.0
2014-Apr-10 18:33N 22°17' E 114°09'0 0.0
2014-Apr-10 17:33N 22°17' E 114°09'0 0.0
2014-Apr-10 16:33N 22°17' E 114°09'7 6.9
2014-Apr-10 15:33N 22°14' E 114°03'2727.0
2014-Apr-10 14:33N 22°12' E 113°34'3227.9
2014-Apr-10 13:25N 22°17' E 114°08'9 9.9
2014-Apr-10 12:29N 22°12' E 113°59'2425.7
2014-Apr-10 11:33N 22°12' E 113°34'0 0.1
2014-Apr-10 10:33N 22°12' E 113°34'0 0.0
2014-Apr-10 09:33N 22°12' E 113°34'0 0.0
2014-Apr-10 08:33N 22°12' E 113°34'0 0.1
2014-Apr-10 07:33N 22°12' E 113°34'0 0.2
2014-Apr-10 06:33N 22°12' E 113°34'3333.4
2014-Apr-10 05:33N 22°17' E 114°09'0 0.0
2014-Apr-10 04:33N 22°17' E 114°09'3333.1
2014-Apr-10 03:33N 22°12' E 113°34'3223.2
2014-Apr-10 02:11N 22°17' E 114°08'1 2.3
2014-Apr-10 01:33N 22°17' E 114°09'3332.8
2014-Apr-10 00:32N 22°12' E 113°34'1717.2
2014-Apr-09 23:33N 22°12' E 113°52'1716.9
2014-Apr-09 22:33N 22°17' E 114°09'0 0.0
2014-Apr-09 21:33N 22°17' E 114°09'0 0.0
2014-Apr-09 20:33N 22°17' E 114°09'0 0.0
2014-Apr-09 19:33N 22°17' E 114°09'0 0.0
2014-Apr-09 18:33N 22°17' E 114°09'0 0.0
2014-Apr-09 17:33N 22°17' E 114°09'0 0.0
2014-Apr-09 16:33N 22°17' E 114°09'0 0.0
2014-Apr-09 15:33N 22°17' E 114°09'0 0.0
2014-Apr-09 14:33N 22°17' E 114°09'0 0.0
2014-Apr-09 13:33N 22°17' E 114°09'0 0.0
2014-Apr-09 12:33N 22°17' E 114°09'0 0.0
2014-Apr-09 11:33N 22°17' E 114°09'0 0.0
2014-Apr-09 10:34N 22°17' E 114°09'0 0.0
2014-Apr-09 09:33N 22°17' E 114°09'0 0.0
2014-Apr-09 08:33N 22°17' E 114°09'0 0.0
2014-Apr-09 07:33N 22°17' E 114°09'0 0.0
2014-Apr-09 06:33N 22°17' E 114°09'0 0.0
2014-Apr-09 05:33N 22°17' E 114°09'0 0.0
2014-Apr-09 04:33N 22°17' E 114°09'0 0.0
2014-Apr-09 03:33N 22°17' E 114°09'0 0.0
2014-Apr-09 02:33N 22°17' E 114°09'0 0.0
2014-Apr-09 01:33N 22°17' E 114°09'0 0.0
2014-Apr-09 00:33N 22°17' E 114°09'0 0.0
2014-Apr-08 23:33N 22°17' E 114°09'0 0.1
2014-Apr-08 22:33N 22°17' E 114°09'0 0.1
2014-Apr-08 21:33N 22°17' E 114°09'0 0.0
2014-Apr-08 20:33N 22°17' E 114°09'0 0.0
2014-Apr-08 19:33N 22°17' E 114°09'0 0.0
2014-Apr-08 18:33N 22°17' E 114°09'0 0.0
2014-Apr-08 17:33N 22°17' E 114°09'0 0.0
2014-Apr-08 16:33N 22°17' E 114°09'0 0.0
2014-Apr-08 15:33N 22°17' E 114°09'0 0.0
2014-Apr-08 14:33N 22°17' E 114°09'0 0.0
2014-Apr-08 13:33N 22°17' E 114°09'3333.3
2014-Apr-08 12:33N 22°12' E 113°34'1817.6
2014-Apr-08 11:33N 22°12' E 113°53'1616.1
2014-Apr-08 10:33N 22°17' E 114°09'0 0.0
2014-Apr-08 09:33N 22°17' E 114°09'1818.0
2014-Apr-08 08:33N 22°11' E 113°51'1616.1
2014-Apr-08 07:34N 22°12' E 113°34'3333.3
2014-Apr-08 06:34N 22°17' E 114°09'1 1.1
2014-Apr-08 05:33N 22°17' E 114°08'3232.0
2014-Apr-08 04:33N 22°12' E 113°34'7 7.5
2014-Apr-08 03:33N 22°12' E 113°42'2625.1
2014-Apr-08 02:31N 22°17' E 114°09'2829.1
2014-Apr-08 01:33N 22°10' E 113°40'1 1.4
2014-Apr-08 00:33N 22°11' E 113°41'2725.9
2014-Apr-07 23:32N 22°17' E 114°09'0 0.0
2014-Apr-07 22:28N 22°17' E 114°09'0 0.0
2014-Apr-07 21:28N 22°17' E 114°09'0 0.0
2014-Apr-07 20:23N 22°17' E 114°09'1518.8
2014-Apr-07 19:34N 22°11' E 113°54'2 1.2
2014-Apr-07 17:33N 22°11' E 113°51'1817.7
2014-Apr-07 16:33N 22°17' E 114°09'7 6.9
2014-Apr-07 15:30N 22°14' E 114°02'2728.1
2014-Apr-07 14:33N 22°12' E 113°34'3228.3
2014-Apr-07 13:26N 22°18' E 114°07'6 6.8
2014-Apr-07 12:30N 22°14' E 114°02'2628.1
2014-Apr-07 11:34N 22°12' E 113°34'0 0.0
2014-Apr-07 10:33N 22°12' E 113°34'0 0.0
2014-Apr-07 09:33N 22°12' E 113°34'0 0.0
2014-Apr-07 08:33N 22°12' E 113°34'0 0.0
2014-Apr-07 07:33N 22°12' E 113°34'  

Dump ship's entire track history

sailing weather and tide predictions

Cacilhas B[ — VRUA8 — position and weather